x

Cape Elizabeth- 45nm Nw Of Aberdeen, Wa (46041) Wave Buoy

5:50pm - Thu 5th May 2016 All times are PDT. -7 hours from GMT.

  • Sig Wave height 5.9ft
  • Swell Direction
  • Peak Period 8s
  • Average Period 6s
  • Wind
    16mph, 18mph gusts
  • Sea Temp 53°f
  • Air Temp 54°f
  • Sea Pressure 1016.9mb
  • Cape Elizabeth- 45nm Nw Of Aberdeen, Wa
  • Cape Elizabeth- 45nm Nw Of Aberdeen, Wa

More Historic Weather Station data

Upgrade to MSW Pro to gain access to the past 30 days of data for over 8000 Wavebouys and Weather Stations around the globe.

Join Pro

Comparision Forecast

View Surf forecast
   
Thu 05/05 5:50pm 6ft 8s 6s 16 18 mph 1016.9mb 53f 54f
4:50pm 6ft 9s 6s 13 16 mph 1017.3mb 54f 54f
3:50pm 6ft 8s 7s 13 16 mph 1017.3mb 53f 53f
2:50pm 6.5ft 8s 7s 13 16 mph 1017.4mb 54f 53f
1:50pm 6.5ft 8s 6s 9
mph
1017.4mb 54f 53f
12:50pm 7ft 9s 7s 7 9 mph 1017.5mb 55f 53f
11:50am 7.5ft 8s 7s 4 7 mph 1017.6mb 54f 53f
10:50am 7ft 9s 7s 4 7 mph 1017.9mb 53f 53f
9:50am 7ft 8s 7s 9 11 mph 1017.7mb 53f 53f
8:50am 7.5ft 9s 7s 9 11 mph 1017.7mb 53f 53f
7:50am 7.5ft 9s 7s 11 13 mph 1017.6mb 53f 52f
6:50am 7ft 8s 6s 13 16 mph 1017.4mb 53f 52f
5:50am 7ft 8s 6s 13 16 mph 1017.5mb 53f 52f
4:50am 7.5ft 8s 7s 13 18 mph 1017.2mb 53f 52f
3:50am 8ft 8s 7s 16 20 mph 1017.1mb 53f 52f
2:50am 7ft 9s 6s 16 18 mph 1017.3mb 53f 52f
1:50am 7ft 9s 6s 16 18 mph 1017.4mb 53f 52f
12:50am 8ft 8s 6s 16 20 mph 1017.4mb 53f 52f
Wed 05/04 11:50pm 8ft 8s 6s 20 22 mph 1017mb 53f 52f
10:50pm 7.5ft 8s 6s 20 25 mph 1017.3mb 53f 52f
9:50pm 7ft 8s 6s 20 25 mph 1017.4mb 53f 52f
8:50pm 7ft 8s 6s 22 27 mph 1017.2mb 53f 52f
7:50pm 6.5ft 9s 6s 20 27 mph 1017mb 53f 52f
6:50pm 7ft 9s 6s 22 25 mph 1016.8mb 53f 52f
5:50pm 7ft 10s 6s 22 25 mph 1017.3mb 53f 52f
4:50pm 6.5ft 7s 6s 20 22 mph 1017.5mb 53f 52f
3:50pm 6.5ft 8s 6s 20 25 mph 1017.8mb 53f 52f
2:50pm 7ft 8s 6s 20 25 mph 1018.4mb 53f 51f
1:50pm 6.5ft 7s 6s 20 25 mph 1018.6mb 53f 51f
12:50pm 6.5ft 8s 6s 22 25 mph 1018.7mb 53f 51f
11:50am 7ft 7s 6s 20 25 mph 1018.9mb 54f 51f
10:50am 7.5ft 7s 6s 20 25 mph 1018.9mb 54f 51f
9:50am 7ft 8s 6s 22 27 mph 1019mb 54f 51f
8:50am 6.5ft 7s 6s 22 27 mph 1019.1mb 54f 51f
7:50am 7ft 6s 6s 22 27 mph 1019.2mb 54f 51f
6:50am 7ft 6s 6s 25 27 mph 1019.2mb 54f 51f
5:50am 6ft 6s 5s 25 27 mph 1019.5mb 55f 52f
4:50am 6.5ft 9s 6s 22 27 mph 1019.9mb 55f 52f
3:50am 6ft 11s 5s 25 29 mph 1019.9mb 55f 52f
2:50am 6.5ft 10s 6s 22 27 mph 1020.1mb 55f 52f
1:50am 6ft 10s 6s 22 25 mph 1020.3mb 55f 53f
12:50am 6ft 10s 6s 22 25 mph 1020.5mb 55f 53f
Tue 05/03 11:50pm 5.5ft 10s 6s 22 25 mph 1020.6mb 55f 53f
10:50pm 5.5ft 10s 6s 22 25 mph 1020.7mb 55f 53f
9:50pm 5ft 11s 6s 16 20 mph 1020.8mb 55f 53f
8:50pm 5.5ft 11s 6s 18 22 mph 1020.5mb 55f 53f
7:50pm 5.5ft 11s 6s 18 22 mph 1020.2mb 55f 53f
6:50pm 5ft 11s 6s 16 20 mph 1020.4mb 55f 53f
5:50pm 5ft 11s 6s 18 22 mph 1020mb 55f 54f
4:50pm 5ft 11s 6s 16 18 mph 1020.3mb 55f 54f
3:50pm 6ft 12s 7s 16 18 mph 1019.9mb 55f 54f
2:50pm 5.5ft 11s 7s 13 16 mph 1019.9mb 56f 54f
1:50pm 6ft 12s 7s 11 13 mph 1019.7mb 55f 54f
12:50pm 6ft 11s 7s 9 11 mph 1019.4mb 55f 54f
11:50am 6ft 10s 7s 9 11 mph 1019.1mb 54f 54f
10:50am 6ft 11s 7s 9 11 mph 1018.5mb 54f 54f
9:50am 6.5ft 11s 8s 7 9 mph 1018.2mb 54f 54f
8:50am 6ft 13s 8s 7 9 mph 1017.8mb 54f 54f
7:50am 6ft 11s 8s 7 9 mph 1017.2mb 54f 54f
5:50am 6.5ft 12s 9s 4 7 mph 1016.8mb 54f 54f
4:50am 6.5ft 11s 8s 9
mph
1016.8mb 54f 54f
3:50am 7ft 12s 9s 9
mph
1017mb 54f 54f
2:50am 7.5ft 13s 9s 9 11 mph 1017.1mb 55f 54f
1:50am 6ft 13s 9s 13 16 mph 1016.5mb 55f 54f
12:50am 6ft 13s 9s 9 11 mph 1016.8mb 55f 55f
Mon 05/02 11:50pm 6ft 14s 9s 11 13 mph 1015.3mb 55f 55f
10:50pm 6ft 13s 9s 11 13 mph 1014.9mb 55f 55f
9:50pm 7ft 13s 9s 4 7 mph 1014.8mb 55f 55f
8:50pm 6ft 14s 9s  -  2 mph 1014.7mb 56f 55f
7:50pm 6ft 14s 9s 2 4 mph 1014.4mb 55f 55f
6:50pm 6.5ft 14s 9s 4
mph
1014.5mb 55f 56f
5:50pm 7.5ft 12s 9s 11
mph
1014.1mb 55f 56f
4:50pm 6ft 14s 9s 11 13 mph 1013.9mb 56f 56f
3:50pm 7ft 11s 9s 11 13 mph 1013.8mb 55f 57f
2:50pm 6.5ft 11s 9s 11 13 mph 1013.9mb 55f 57f
1:50pm 7.5ft 11s 10s 11 13 mph 1013.7mb 55f 57f
12:50pm 7ft 14s 9s 13 16 mph 1013.6mb 55f 59f
11:50am 7.5ft 14s 10s 16 18 mph 1013.3mb 55f 61f
10:50am 7.5ft 14s 10s 11 13 mph 1013mb 54f 58f
9:50am 7ft 13s 9s 13 16 mph 1012.3mb 54f 60f
8:50am 7.5ft 14s 9s 13 16 mph 1012.2mb 54f 59f
7:50am 6.5ft 14s 9s 13 18 mph 1012mb 54f 60f
6:50am 7ft 13s 10s 9 13 mph 1011.6mb 54f 58f
5:50am 6ft 13s 10s 11 13 mph 1011.5mb 54f 58f
4:50am 5.5ft 14s 10s 9 11 mph 1011.8mb 54f 56f
3:50am 6ft 13s 10s 4 7 mph 1012.2mb 54f 56f
2:50am 5.5ft 11s 9s 7 9 mph 1012mb 54f 58f